Time;durP1;ratioP1;P1;durP2;ratioP2;P2;SDS_P1;SDS_P2;PMS_P1;PMS_P2;Temp;Humidity;BMP_temperature;BMP_pressure;BME280_temperature;BME280_humidity;BME280_pressure;Samples;Min_cycle;Max_cycle;Signal;HPM_P1;HPM_P2
2021/03/23 00:01:14;;;;;;;3.40;3.05;;;;;;;;;;5130028;28;20587;-67
2021/03/23 00:03:42;;;;;;;4.47;4.10;;;;;;;;;;5130609;28;20023;-68
2021/03/23 00:06:09;;;;;;;3.55;3.22;;;;;;;;;;5130403;28;20055;-67
2021/03/23 00:08:43;;;;;;;4.68;4.15;;;;;;;;;;5130928;28;20034;-68
2021/03/23 00:11:35;;;;;;;4.07;3.67;;;;;;;;;;5130100;28;20381;-67
2021/03/23 00:14:02;;;;;;;3.28;2.97;;;;;;;;;;5125737;28;20102;-67
2021/03/23 00:16:30;;;;;;;4.07;3.67;;;;;;;;;;5131076;28;20058;-67
2021/03/23 00:18:57;;;;;;;4.13;3.78;;;;;;;;;;5130619;28;20030;-67
2021/03/23 00:21:24;;;;;;;3.13;2.70;;;;;;;;;;5130333;28;20484;-68
2021/03/23 00:23:50;;;;;;;3.65;3.35;;;;;;;;;;5130971;28;20034;-68
2021/03/23 00:26:17;;;;;;;5.03;4.55;;;;;;;;;;5130564;27;20042;-68
2021/03/23 00:28:47;;;;;;;4.30;3.88;;;;;;;;;;5134710;27;20061;-68
2021/03/23 00:31:14;;;;;;;2.88;2.67;;;;;;;;;;5133759;27;20028;-68
2021/03/23 00:33:40;;;;;;;3.63;3.33;;;;;;;;;;5134909;27;20079;-67
2021/03/23 00:36:07;;;;;;;3.38;3.08;;;;;;;;;;5115502;27;20389;-67
2021/03/23 00:38:34;;;;;;;3.72;3.42;;;;;;;;;;5134282;27;20111;-67
2021/03/23 00:41:01;;;;;;;4.10;3.80;;;;;;;;;;5133777;27;20136;-67
2021/03/23 00:43:27;;;;;;;3.63;3.00;;;;;;;;;;5134593;27;20083;-67
2021/03/23 00:45:53;;;;;;;4.30;3.50;;;;;;;;;;5134797;27;20106;-68
2021/03/23 00:48:20;;;;;;;4.50;4.05;;;;;;;;;;5133948;27;20031;-68
2021/03/23 00:50:46;;;;;;;5.40;3.60;;;;;;;;;;5130649;27;20043;-67
2021/03/23 00:53:12;;;;;;;3.95;3.45;;;;;;;;;;5133110;27;20034;-67
2021/03/23 00:55:39;;;;;;;4.15;2.95;;;;;;;;;;5134121;27;20045;-67
2021/03/23 00:58:05;;;;;;;4.55;4.15;;;;;;;;;;5133094;27;20032;-66
2021/03/23 01:00:32;;;;;;;3.75;3.45;;;;;;;;;;5133750;27;20026;-68
2021/03/23 01:02:58;;;;;;;4.00;3.60;;;;;;;;;;5133576;27;20023;-67
2021/03/23 01:05:26;;;;;;;3.47;3.17;;;;;;;;;;5133992;27;20088;-67
2021/03/23 01:07:52;;;;;;;4.72;4.20;;;;;;;;;;5134010;27;20031;-68
2021/03/23 01:10:19;;;;;;;4.97;3.63;;;;;;;;;;5133174;27;20034;-67
2021/03/23 01:12:45;;;;;;;5.18;3.53;;;;;;;;;;5134465;27;20099;-68
2021/03/23 01:15:13;;;;;;;3.42;3.13;;;;;;;;;;5133489;27;20377;-68
2021/03/23 01:17:40;;;;;;;5.45;4.00;;;;;;;;;;5134019;27;20019;-68
2021/03/23 01:20:07;;;;;;;3.38;3.08;;;;;;;;;;5133140;27;20051;-67
2021/03/23 01:22:33;;;;;;;3.80;3.40;;;;;;;;;;5133545;27;20117;-67
2021/03/23 01:24:59;;;;;;;4.32;3.92;;;;;;;;;;5133462;27;20023;-68
2021/03/23 01:27:25;;;;;;;5.00;4.60;;;;;;;;;;5133397;27;20061;-67
2021/03/23 01:29:51;;;;;;;4.55;4.15;;;;;;;;;;5133618;27;20035;-67
2021/03/23 01:32:17;;;;;;;4.57;4.20;;;;;;;;;;5132717;27;20534;-67
2021/03/23 01:34:48;;;;;;;4.65;4.25;;;;;;;;;;5133572;27;20477;-67
2021/03/23 01:37:15;;;;;;;5.43;4.15;;;;;;;;;;5132674;27;20039;-68
2021/03/23 01:39:41;;;;;;;8.43;4.90;;;;;;;;;;5133105;27;20396;-68
2021/03/23 01:42:08;;;;;;;4.75;4.05;;;;;;;;;;5132538;27;20041;-68
2021/03/23 01:44:34;;;;;;;4.10;3.78;;;;;;;;;;5133613;27;20028;-68
2021/03/23 01:47:00;;;;;;;4.13;3.72;;;;;;;;;;5133462;27;20065;-67
2021/03/23 01:49:45;;;;;;;4.22;3.83;;;;;;;;;;5132950;27;20042;-68
2021/03/23 01:52:14;;;;;;;5.65;4.68;;;;;;;;;;5132512;27;20027;-68
2021/03/23 01:54:45;;;;;;;4.80;3.97;;;;;;;;;;5133147;27;20580;-67
2021/03/23 01:57:13;;;;;;;4.35;4.03;;;;;;;;;;5129518;27;20016;-67
2021/03/23 01:59:47;;;;;;;3.60;3.25;;;;;;;;;;5132455;27;20130;-68
2021/03/23 02:02:13;;;;;;;5.85;4.70;;;;;;;;;;5131832;27;20027;-67
2021/03/23 02:04:39;;;;;;;3.60;3.30;;;;;;;;;;5133045;27;20481;-67
2021/03/23 02:07:06;;;;;;;5.15;4.25;;;;;;;;;;5132484;27;20031;-67
2021/03/23 02:09:34;;;;;;;4.57;4.05;;;;;;;;;;5132714;27;20575;-68
2021/03/23 02:12:08;;;;;;;3.30;3.00;;;;;;;;;;5132123;27;20027;-67
2021/03/23 02:14:36;;;;;;;3.45;3.25;;;;;;;;;;5132837;27;20061;-68
2021/03/23 02:17:22;;;;;;;4.15;3.75;;;;;;;;;;5132224;27;20034;-67
2021/03/23 02:19:53;;;;;;;4.63;4.22;;;;;;;;;;5132553;27;20026;-68
2021/03/23 02:22:22;;;;;;;5.22;4.72;;;;;;;;;;5131932;27;20587;-67
2021/03/23 02:24:49;;;;;;;3.97;3.67;;;;;;;;;;5132799;27;20435;-68
2021/03/23 02:27:15;;;;;;;4.22;3.83;;;;;;;;;;5131848;27;20065;-67
2021/03/23 02:29:41;;;;;;;3.78;3.47;;;;;;;;;;5132133;27;20488;-68
2021/03/23 02:32:08;;;;;;;4.03;3.63;;;;;;;;;;5131575;27;20035;-67
2021/03/23 02:34:34;;;;;;;3.45;3.15;;;;;;;;;;5132152;27;20450;-68
2021/03/23 02:37:00;;;;;;;5.05;4.55;;;;;;;;;;5132108;27;20402;-67
2021/03/23 02:39:28;;;;;;;4.65;3.72;;;;;;;;;;5131760;27;20042;-67
2021/03/23 02:41:54;;;;;;;3.90;3.33;;;;;;;;;;5132344;27;20038;-67
2021/03/23 02:44:21;;;;;;;4.43;4.00;;;;;;;;;;5132101;27;20041;-67
2021/03/23 02:46:47;;;;;;;5.32;4.10;;;;;;;;;;5129163;27;20477;-67
2021/03/23 02:49:13;;;;;;;4.18;3.78;;;;;;;;;;5130962;27;20032;-67
2021/03/23 02:51:39;;;;;;;3.65;3.35;;;;;;;;;;5132050;27;20588;-67
2021/03/23 02:54:05;;;;;;;5.72;3.85;;;;;;;;;;5131449;27;20062;-69
2021/03/23 02:56:31;;;;;;;3.08;2.75;;;;;;;;;;5132188;27;20035;-67
2021/03/23 02:58:57;;;;;;;4.25;3.53;;;;;;;;;;5131243;27;20151;-67
2021/03/23 03:01:24;;;;;;;4.28;3.33;;;;;;;;;;5131365;27;20110;-67
2021/03/23 03:03:50;;;;;;;4.35;3.95;;;;;;;;;;5131787;27;20031;-68
2021/03/23 03:06:16;;;;;;;2.88;2.67;;;;;;;;;;5131381;27;20041;-67
2021/03/23 03:08:42;;;;;;;5.13;4.55;;;;;;;;;;5131596;27;20036;-68
2021/03/23 03:11:09;;;;;;;3.58;3.28;;;;;;;;;;5130652;27;20083;-67
2021/03/23 03:13:35;;;;;;;3.50;3.20;;;;;;;;;;5131890;27;20529;-67
2021/03/23 03:16:02;;;;;;;6.10;4.72;;;;;;;;;;5131105;27;20114;-67
2021/03/23 03:18:28;;;;;;;7.18;5.45;;;;;;;;;;5131769;27;20024;-67
2021/03/23 03:20:55;;;;;;;4.10;3.80;;;;;;;;;;5131293;27;20042;-67
2021/03/23 03:23:22;;;;;;;3.38;3.08;;;;;;;;;;5131351;27;20084;-68
2021/03/23 03:25:49;;;;;;;3.40;3.10;;;;;;;;;;5131847;27;20023;-68
2021/03/23 03:28:15;;;;;;;4.35;3.90;;;;;;;;;;5130746;27;20039;-67
2021/03/23 03:30:41;;;;;;;4.78;4.03;;;;;;;;;;5131061;27;20412;-67
2021/03/23 03:33:09;;;;;;;4.07;3.67;;;;;;;;;;5130685;27;20030;-67
2021/03/23 03:35:37;;;;;;;3.40;3.10;;;;;;;;;;5131444;27;20452;-67
2021/03/23 03:38:04;;;;;;;3.85;3.45;;;;;;;;;;5131001;27;20033;-67
2021/03/23 03:40:35;;;;;;;3.33;3.03;;;;;;;;;;5131092;27;20027;-67
2021/03/23 03:43:01;;;;;;;4.47;4.07;;;;;;;;;;5130674;27;20439;-67
2021/03/23 03:45:28;;;;;;;4.93;4.03;;;;;;;;;;5131366;27;20034;-67
2021/03/23 03:47:54;;;;;;;3.50;3.17;;;;;;;;;;5131444;27;20397;-67
2021/03/23 03:50:22;;;;;;;4.82;3.55;;;;;;;;;;5130711;27;20038;-67
2021/03/23 03:52:48;;;;;;;3.22;3.00;;;;;;;;;;5131328;27;20034;-68
2021/03/23 03:55:15;;;;;;;4.00;3.30;;;;;;;;;;5130754;27;20488;-67
2021/03/23 03:57:41;;;;;;;3.80;3.45;;;;;;;;;;5127562;28;20023;-67
2021/03/23 04:00:08;;;;;;;2.92;2.70;;;;;;;;;;5129417;28;20051;-67
2021/03/23 04:02:34;;;;;;;4.28;3.72;;;;;;;;;;5135361;27;20019;-67
2021/03/23 04:05:00;;;;;;;3.17;2.83;;;;;;;;;;5134788;27;20031;-67
2021/03/23 04:07:26;;;;;;;3.03;2.72;;;;;;;;;;5135548;27;20031;-67
2021/03/23 04:09:52;;;;;;;3.15;2.88;;;;;;;;;;5135183;27;20393;-67
2021/03/23 04:12:18;;;;;;;4.15;3.75;;;;;;;;;;5134489;27;20175;-67
2021/03/23 04:14:44;;;;;;;2.83;2.53;;;;;;;;;;5135244;27;20027;-68
2021/03/23 04:17:11;;;;;;;2.67;2.47;;;;;;;;;;5134645;27;20031;-67
2021/03/23 04:19:37;;;;;;;3.65;3.33;;;;;;;;;;5134829;27;20031;-68
2021/03/23 04:22:03;;;;;;;3.85;3.55;;;;;;;;;;5134283;27;20031;-67
2021/03/23 04:24:29;;;;;;;3.85;3.20;;;;;;;;;;5134916;27;20126;-67
2021/03/23 04:26:55;;;;;;;3.45;3.15;;;;;;;;;;5134848;27;20027;-67
2021/03/23 04:29:21;;;;;;;2.53;2.33;;;;;;;;;;5134144;27;20100;-67
2021/03/23 04:31:47;;;;;;;3.17;2.45;;;;;;;;;;5134940;27;20031;-67
2021/03/23 04:34:14;;;;;;;2.85;2.65;;;;;;;;;;5133578;27;20423;-67
2021/03/23 04:36:40;;;;;;;3.60;2.95;;;;;;;;;;5134677;27;20519;-68
2021/03/23 04:39:08;;;;;;;3.85;3.55;;;;;;;;;;5134218;27;20028;-67
2021/03/23 04:41:34;;;;;;;3.45;3.13;;;;;;;;;;5134105;27;20076;-67
2021/03/23 04:44:00;;;;;;;3.85;3.45;;;;;;;;;;5134075;27;20397;-67
2021/03/23 04:46:28;;;;;;;3.05;2.85;;;;;;;;;;5134558;27;20027;-67
2021/03/23 04:48:54;;;;;;;5.30;3.85;;;;;;;;;;5134231;27;20126;-67
2021/03/23 04:51:22;;;;;;;3.42;3.13;;;;;;;;;;5133816;27;20028;-68
2021/03/23 04:53:48;;;;;;;3.03;2.78;;;;;;;;;;5134593;27;20019;-67
2021/03/23 04:56:20;;;;;;;4.57;3.65;;;;;;;;;;5133760;27;20188;-67
2021/03/23 04:58:46;;;;;;;4.10;2.85;;;;;;;;;;5130683;27;20055;-68
2021/03/23 05:01:12;;;;;;;3.42;3.13;;;;;;;;;;5133138;27;20390;-67
2021/03/23 05:03:39;;;;;;;2.08;1.98;;;;;;;;;;5134243;27;20038;-67
2021/03/23 05:06:08;;;;;;;2.60;2.40;;;;;;;;;;5133710;27;20038;-67
2021/03/23 05:08:35;;;;;;;2.53;2.33;;;;;;;;;;5133902;27;20110;-68
2021/03/23 05:11:01;;;;;;;3.28;2.90;;;;;;;;;;5133408;27;20026;-67
2021/03/23 05:13:27;;;;;;;3.55;3.25;;;;;;;;;;5133364;27;20035;-67
2021/03/23 05:15:53;;;;;;;3.65;2.53;;;;;;;;;;5133719;27;20023;-67
2021/03/23 05:18:19;;;;;;;2.42;2.22;;;;;;;;;;5133642;27;20035;-67
2021/03/23 05:20:45;;;;;;;2.80;2.50;;;;;;;;;;5133866;27;20030;-67
2021/03/23 05:23:12;;;;;;;2.55;2.08;;;;;;;;;;5133209;27;20393;-67
2021/03/23 05:25:39;;;;;;;3.08;2.88;;;;;;;;;;5133872;27;20547;-68
2021/03/23 05:28:05;;;;;;;2.42;2.22;;;;;;;;;;5114192;27;20070;-67
2021/03/23 05:30:31;;;;;;;3.17;2.88;;;;;;;;;;5133345;27;20031;-67
2021/03/23 05:32:57;;;;;;;3.03;2.65;;;;;;;;;;5133753;27;20031;-67
2021/03/23 05:35:23;;;;;;;5.72;3.53;;;;;;;;;;5133268;27;20548;-67
2021/03/23 05:37:50;;;;;;;4.70;2.78;;;;;;;;;;5133525;27;20548;-67
2021/03/23 05:40:39;;;;;;;2.47;2.28;;;;;;;;;;5132755;27;20059;-67
2021/03/23 05:43:26;;;;;;;2.80;2.60;;;;;;;;;;5119985;27;20125;-67
2021/03/23 05:46:01;;;;;;;2.72;2.53;;;;;;;;;;5133586;27;20076;-67
2021/03/23 05:48:32;;;;;;;3.33;2.42;;;;;;;;;;5133662;27;20023;-67
2021/03/23 05:51:10;;;;;;;1.95;1.75;;;;;;;;;;5129882;27;20031;-67
2021/03/23 05:53:43;;;;;;;3.67;3.38;;;;;;;;;;5133245;27;20079;-67
2021/03/23 05:56:09;;;;;;;3.13;2.78;;;;;;;;;;5132829;27;20027;-68
2021/03/23 05:58:40;;;;;;;2.50;2.30;;;;;;;;;;5132582;27;20080;-67
2021/03/23 06:01:12;;;;;;;4.13;2.70;;;;;;;;;;5132443;27;20526;-68
2021/03/23 06:03:41;;;;;;;3.58;3.28;;;;;;;;;;5133147;27;20026;-67
2021/03/23 06:06:26;;;;;;;2.38;1.92;;;;;;;;;;5132354;27;20401;-67
2021/03/23 06:08:52;;;;;;;3.30;2.85;;;;;;;;;;5132919;27;20042;-68
2021/03/23 06:11:18;;;;;;;2.53;1.85;;;;;;;;;;5132325;27;20038;-68
2021/03/23 06:13:48;;;;;;;2.50;2.30;;;;;;;;;;5133016;27;20043;-67
2021/03/23 06:16:32;;;;;;;2.40;2.20;;;;;;;;;;5132223;27;20500;-68
2021/03/23 06:19:04;;;;;;;2.22;2.03;;;;;;;;;;5132246;27;20023;-67
2021/03/23 06:21:35;;;;;;;1.98;1.80;;;;;;;;;;5132531;27;20030;-67
2021/03/23 06:24:01;;;;;;;3.80;2.38;;;;;;;;;;5131598;27;20064;-67
2021/03/23 06:26:36;;;;;;;2.10;1.90;;;;;;;;;;5132534;27;20068;-68
2021/03/23 06:29:17;;;;;;;3.05;2.78;;;;;;;;;;5131731;27;20101;-67
2021/03/23 06:31:59;;;;;;;2.17;2.00;;;;;;;;;;5132233;27;20160;-67
2021/03/23 06:34:30;;;;;;;2.85;2.65;;;;;;;;;;5113876;27;20023;-67
2021/03/23 06:36:56;;;;;;;2.45;2.25;;;;;;;;;;5132122;27;20031;-67
2021/03/23 06:39:23;;;;;;;2.40;2.30;;;;;;;;;;5131924;27;20031;-67
2021/03/23 06:41:55;;;;;;;2.65;2.40;;;;;;;;;;5132269;27;20477;-67
2021/03/23 06:44:23;;;;;;;2.78;2.58;;;;;;;;;;5132129;27;20035;-67
2021/03/23 06:46:52;;;;;;;2.22;2.05;;;;;;;;;;5132641;27;20068;-68
2021/03/23 06:49:25;;;;;;;2.60;2.30;;;;;;;;;;5131353;27;20050;-67
2021/03/23 06:51:51;;;;;;;4.60;3.10;;;;;;;;;;5131620;27;20023;-67
2021/03/23 06:54:17;;;;;;;3.55;2.33;;;;;;;;;;5120275;27;20042;-67
2021/03/23 06:56:44;;;;;;;3.15;2.40;;;;;;;;;;5129390;27;20030;-67
2021/03/23 06:59:14;;;;;;;3.03;2.75;;;;;;;;;;5130462;27;20043;-67
2021/03/23 07:01:44;;;;;;;3.80;3.08;;;;;;;;;;5126162;27;20134;-68
2021/03/23 07:04:32;;;;;;;6.93;2.90;;;;;;;;;;5127848;27;20034;-67
2021/03/23 07:07:21;;;;;;;3.15;2.85;;;;;;;;;;5129586;27;20476;-67
2021/03/23 07:09:48;;;;;;;3.20;2.60;;;;;;;;;;5129472;27;20068;-67
2021/03/23 07:12:15;;;;;;;2.65;2.28;;;;;;;;;;5127837;27;20601;-67
2021/03/23 07:14:45;;;;;;;3.25;3.00;;;;;;;;;;5127114;27;20083;-67
2021/03/23 07:17:12;;;;;;;5.78;4.30;;;;;;;;;;5129798;27;20113;-67
2021/03/23 07:19:49;;;;;;;3.38;2.72;;;;;;;;;;5128247;27;20026;-68
2021/03/23 07:22:36;;;;;;;3.55;2.88;;;;;;;;;;5124768;27;20027;-67
2021/03/23 07:25:04;;;;;;;5.45;4.30;;;;;;;;;;5128233;27;20027;-67
2021/03/23 07:27:31;;;;;;;3.85;3.33;;;;;;;;;;5123857;27;20382;-67
2021/03/23 07:30:12;;;;;;;4.20;3.55;;;;;;;;;;5118795;27;20051;-66
2021/03/23 07:32:43;;;;;;;7.38;3.92;;;;;;;;;;5127521;27;20026;-67
2021/03/23 07:35:32;;;;;;;3.83;3.00;;;;;;;;;;5125729;27;20015;-67
2021/03/23 07:38:02;;;;;;;3.42;3.10;;;;;;;;;;5113308;27;20035;-67
2021/03/23 07:40:32;;;;;;;3.85;3.05;;;;;;;;;;5119464;27;20031;-67
2021/03/23 07:42:58;;;;;;;3.22;2.92;;;;;;;;;;5124532;27;20072;-67
2021/03/23 07:45:28;;;;;;;3.45;2.80;;;;;;;;;;5128765;27;20031;-67
2021/03/23 07:48:03;;;;;;;3.80;3.20;;;;;;;;;;5126340;27;20102;-66
2021/03/23 07:50:31;;;;;;;4.28;2.30;;;;;;;;;;5129994;27;20050;-67
2021/03/23 07:53:02;;;;;;;3.67;3.08;;;;;;;;;;5129437;27;20019;-67
2021/03/23 07:55:29;;;;;;;4.75;3.38;;;;;;;;;;5129654;27;20027;-67
2021/03/23 07:57:55;;;;;;;7.63;3.00;;;;;;;;;;5129122;27;20083;-67
2021/03/23 08:00:40;;;;;;;7.05;3.05;;;;;;;;;;5121939;28;20055;-67
2021/03/23 08:03:22;;;;;;;2.53;2.10;;;;;;;;;;5112574;28;20035;-66
2021/03/23 08:06:00;;;;;;;4.57;3.90;;;;;;;;;;5115247;27;20043;-67
2021/03/23 08:08:45;;;;;;;2.65;2.30;;;;;;;;;;5116903;28;20409;-67
2021/03/23 08:11:14;;;;;;;4.80;3.03;;;;;;;;;;5113718;28;20035;-67
2021/03/23 08:13:40;;;;;;;2.85;2.60;;;;;;;;;;5118029;28;20027;-67
2021/03/23 08:16:11;;;;;;;3.85;2.60;;;;;;;;;;5117557;28;20599;-67
2021/03/23 08:18:40;;;;;;;4.75;2.95;;;;;;;;;;5118678;28;20023;-67
2021/03/23 08:21:14;;;;;;;5.78;3.63;;;;;;;;;;5114531;28;20238;-66
2021/03/23 08:23:59;;;;;;;5.03;2.65;;;;;;;;;;5117445;28;20506;-66
2021/03/23 08:26:44;;;;;;;5.35;2.75;;;;;;;;;;5117109;28;20043;-67
2021/03/23 08:29:15;;;;;;;5.63;3.08;;;;;;;;;;5117445;28;20046;-68
2021/03/23 08:31:44;;;;;;;2.75;2.30;;;;;;;;;;5115638;28;20397;-67
2021/03/23 08:34:39;;;;;;;4.45;3.05;;;;;;;;;;5115074;28;20031;-66
2021/03/23 08:37:05;;;;;;;5.65;2.67;;;;;;;;;;5035993;28;20461;-66
2021/03/23 08:39:50;;;;;;;3.35;3.05;;;;;;;;;;5117546;28;20461;-67
2021/03/23 08:42:21;;;;;;;4.10;2.30;;;;;;;;;;5111103;28;20047;-66
2021/03/23 08:44:52;;;;;;;3.17;2.75;;;;;;;;;;5116540;28;20035;-66
2021/03/23 08:47:36;;;;;;;3.10;2.65;;;;;;;;;;5116317;27;20035;-66
2021/03/23 08:50:07;;;;;;;3.15;2.70;;;;;;;;;;5120029;27;20406;-67
2021/03/23 08:52:56;;;;;;;2.90;2.70;;;;;;;;;;5120636;27;20051;-67
2021/03/23 08:55:26;;;;;;;5.43;3.03;;;;;;;;;;5108751;27;20129;-67
2021/03/23 08:58:01;;;;;;;5.18;2.42;;;;;;;;;;5120292;27;20038;-69
2021/03/23 09:00:36;;;;;;;2.88;2.67;;;;;;;;;;5115523;27;20047;-68
2021/03/23 09:03:09;;;;;;;3.20;2.90;;;;;;;;;;5119631;27;20031;-67
2021/03/23 09:05:50;;;;;;;3.85;2.85;;;;;;;;;;5118779;27;20038;-67
2021/03/23 09:08:28;;;;;;;3.35;2.72;;;;;;;;;;5116299;27;20050;-67
2021/03/23 09:10:54;;;;;;;2.97;2.60;;;;;;;;;;5113385;27;20024;-67
2021/03/23 09:13:36;;;;;;;3.13;2.53;;;;;;;;;;5114471;27;20118;-73
2021/03/23 09:16:03;;;;;;;4.53;3.30;;;;;;;;;;5115142;27;20055;-68
2021/03/23 09:18:30;;;;;;;2.50;2.30;;;;;;;;;;5117545;27;20168;-69
2021/03/23 09:21:05;;;;;;;2.70;2.50;;;;;;;;;;5106253;27;20015;-68
2021/03/23 09:23:36;;;;;;;2.63;2.42;;;;;;;;;;5120121;27;20031;-68
2021/03/23 09:26:25;;;;;;;6.78;2.40;;;;;;;;;;5112522;27;20039;-69
2021/03/23 09:28:54;;;;;;;4.35;3.55;;;;;;;;;;5108512;27;20089;-68
2021/03/23 09:31:22;;;;;;;4.72;2.60;;;;;;;;;;5118457;27;20499;-68
2021/03/23 09:33:57;;;;;;;4.38;2.92;;;;;;;;;;5116212;27;20023;-68
2021/03/23 09:36:33;;;;;;;3.47;2.72;;;;;;;;;;5120115;27;20112;-68
2021/03/23 09:39:15;;;;;;;3.40;3.10;;;;;;;;;;5120662;27;20487;-69
2021/03/23 09:41:43;;;;;;;5.97;3.22;;;;;;;;;;5119132;27;20247;-68
2021/03/23 09:44:11;;;;;;;4.63;2.20;;;;;;;;;;5118836;27;20031;-68
2021/03/23 09:46:50;;;;;;;6.28;2.30;;;;;;;;;;5118181;27;20062;-67
2021/03/23 09:49:19;;;;;;;3.72;2.80;;;;;;;;;;5119031;27;20565;-67
2021/03/23 09:51:49;;;;;;;2.92;2.28;;;;;;;;;;5117515;27;20081;-68
2021/03/23 09:54:21;;;;;;;4.63;2.60;;;;;;;;;;5119639;27;20061;-68
2021/03/23 09:56:48;;;;;;;5.15;2.60;;;;;;;;;;5119828;27;20031;-68
2021/03/23 09:59:16;;;;;;;5.25;2.92;;;;;;;;;;5116158;27;20047;-67
2021/03/23 10:01:52;;;;;;;3.67;2.80;;;;;;;;;;5105475;27;20023;-68
2021/03/23 10:04:47;;;;;;;2.30;2.10;;;;;;;;;;5118529;27;20031;-69
2021/03/23 10:07:31;;;;;;;5.07;2.83;;;;;;;;;;5101703;27;20035;-69
2021/03/23 10:10:16;;;;;;;3.50;2.72;;;;;;;;;;5115929;27;20053;-67
2021/03/23 10:12:42;;;;;;;5.13;3.00;;;;;;;;;;5115290;27;20458;-68
2021/03/23 10:15:26;;;;;;;5.47;3.38;;;;;;;;;;5114458;27;20027;-68
2021/03/23 10:17:52;;;;;;;3.40;2.67;;;;;;;;;;5118408;27;20060;-68
2021/03/23 10:20:20;;;;;;;4.47;2.92;;;;;;;;;;5117951;27;21016;-68
2021/03/23 10:22:53;;;;;;;2.63;1.88;;;;;;;;;;5116003;27;20382;-68
2021/03/23 10:25:20;;;;;;;3.53;2.90;;;;;;;;;;5117346;27;20135;-67
2021/03/23 10:27:47;;;;;;;4.70;3.38;;;;;;;;;;5120044;27;20038;-68
2021/03/23 10:30:18;;;;;;;3.42;2.70;;;;;;;;;;5116403;27;20493;-68
2021/03/23 10:32:46;;;;;;;7.00;3.10;;;;;;;;;;5119450;27;20160;-67
2021/03/23 10:35:16;;;;;;;4.25;1.98;;;;;;;;;;5117602;27;20031;-68
2021/03/23 10:37:42;;;;;;;2.00;1.75;;;;;;;;;;5117794;27;20501;-68
2021/03/23 10:40:29;;;;;;;2.20;1.85;;;;;;;;;;5117776;27;20059;-68
2021/03/23 10:42:55;;;;;;;3.33;2.50;;;;;;;;;;5118261;27;20027;-68
2021/03/23 10:45:21;;;;;;;3.20;2.65;;;;;;;;;;5118768;27;20106;-68
2021/03/23 10:47:48;;;;;;;4.85;3.53;;;;;;;;;;5118962;27;20072;-68
2021/03/23 10:50:14;;;;;;;6.55;2.13;;;;;;;;;;5117452;27;20126;-68
2021/03/23 10:52:40;;;;;;;3.10;2.65;;;;;;;;;;5119149;27;20032;-69
2021/03/23 10:55:10;;;;;;;3.17;2.38;;;;;;;;;;5119245;27;20061;-68
2021/03/23 10:57:38;;;;;;;5.18;2.95;;;;;;;;;;5119385;27;20097;-69
2021/03/23 11:00:16;;;;;;;1.95;1.75;;;;;;;;;;5100610;27;20055;-68
2021/03/23 11:02:42;;;;;;;8.90;5.60;;;;;;;;;;5098995;28;20047;-69
2021/03/23 11:05:13;;;;;;;5.85;5.25;;;;;;;;;;5098438;28;20076;-69
2021/03/23 11:08:01;;;;;;;6.47;3.05;;;;;;;;;;5098287;28;20043;-71
2021/03/23 11:10:32;;;;;;;7.13;3.65;;;;;;;;;;5095311;28;20074;-70
2021/03/23 11:12:58;;;;;;;7.40;3.65;;;;;;;;;;5096990;28;20031;-69
2021/03/23 11:18:28;;;;;;;4.68;3.08;;;;;;;;;;5082895;28;20104;-70
2021/03/23 11:20:55;;;;;;;5.00;4.03;;;;;;;;;;5095134;28;20116;-70
2021/03/23 11:23:21;;;;;;;4.55;2.72;;;;;;;;;;5095923;28;20114;-70
2021/03/23 11:25:47;;;;;;;5.18;2.95;;;;;;;;;;5094778;28;20082;-71
2021/03/23 11:28:17;;;;;;;5.25;2.95;;;;;;;;;;5098109;28;20016;-70
2021/03/23 11:30:44;;;;;;;7.53;3.20;;;;;;;;;;5095202;28;20040;-70
2021/03/23 11:33:14;;;;;;;6.25;3.08;;;;;;;;;;5097325;28;20055;-69
2021/03/23 11:35:40;;;;;;;4.72;2.83;;;;;;;;;;5095530;28;20040;-69
2021/03/23 11:38:07;;;;;;;5.35;3.58;;;;;;;;;;5096816;28;20549;-69
2021/03/23 11:40:33;;;;;;;5.13;3.38;;;;;;;;;;5095969;28;20031;-69
2021/03/23 11:43:05;;;;;;;3.67;3.20;;;;;;;;;;5097283;28;20041;-69
2021/03/23 11:45:38;;;;;;;4.10;2.53;;;;;;;;;;5098113;28;20119;-69
2021/03/23 11:48:09;;;;;;;5.22;3.05;;;;;;;;;;5097255;28;20436;-69
2021/03/23 11:50:38;;;;;;;4.88;3.50;;;;;;;;;;5113658;27;20574;-69
2021/03/23 11:53:04;;;;;;;3.25;2.88;;;;;;;;;;5096869;28;20032;-69
2021/03/23 11:55:35;;;;;;;2.38;2.05;;;;;;;;;;5097937;28;20114;-69
2021/03/23 11:58:03;;;;;;;4.18;2.40;;;;;;;;;;5098890;28;20423;-69
2021/03/23 12:00:30;;;;;;;4.10;2.97;;;;;;;;;;5099178;27;20082;-69
2021/03/23 12:02:57;;;;;;;3.88;2.45;;;;;;;;;;5106050;28;20031;-69
2021/03/23 12:05:23;;;;;;;5.68;2.80;;;;;;;;;;5113379;28;20115;-69
2021/03/23 12:07:49;;;;;;;3.90;3.38;;;;;;;;;;5110577;28;20054;-69
2021/03/23 12:10:37;;;;;;;3.08;2.47;;;;;;;;;;5103814;28;20042;-72
2021/03/23 12:13:06;;;;;;;3.50;2.75;;;;;;;;;;5109846;28;20027;-69
2021/03/23 12:15:35;;;;;;;7.55;3.30;;;;;;;;;;5108355;28;20023;-69
2021/03/23 12:18:07;;;;;;;3.53;3.03;;;;;;;;;;5113055;28;20128;-69
2021/03/23 12:20:35;;;;;;;3.65;2.60;;;;;;;;;;5105307;28;20073;-69
2021/03/23 12:23:01;;;;;;;7.60;3.42;;;;;;;;;;5107933;28;20054;-69
2021/03/23 12:25:28;;;;;;;5.80;3.92;;;;;;;;;;5123019;27;20693;-69
2021/03/23 12:27:54;;;;;;;4.68;2.42;;;;;;;;;;5125811;27;20023;-69
2021/03/23 12:30:22;;;;;;;2.95;2.63;;;;;;;;;;5122753;27;20043;-69
2021/03/23 12:32:48;;;;;;;5.25;2.92;;;;;;;;;;5110043;27;20497;-68
2021/03/23 12:35:17;;;;;;;3.95;3.42;;;;;;;;;;5110641;27;20078;-68
2021/03/23 12:37:43;;;;;;;5.97;3.00;;;;;;;;;;5110284;28;20028;-69
2021/03/23 12:40:11;;;;;;;3.88;2.50;;;;;;;;;;5107422;28;20110;-68
2021/03/23 12:42:37;;;;;;;7.25;3.35;;;;;;;;;;5113851;27;20023;-68
2021/03/23 12:45:04;;;;;;;5.65;3.17;;;;;;;;;;5107142;28;20077;-68
2021/03/23 12:47:30;;;;;;;6.20;2.80;;;;;;;;;;5106242;28;20136;-68
2021/03/23 12:49:56;;;;;;;3.53;2.92;;;;;;;;;;5120607;27;20039;-72
2021/03/23 12:52:23;;;;;;;5.10;2.92;;;;;;;;;;5131984;27;20059;-69
2021/03/23 12:54:56;;;;;;;3.00;2.70;;;;;;;;;;5115104;27;20028;-69
2021/03/23 12:57:24;;;;;;;3.33;2.45;;;;;;;;;;5105124;27;20111;-69
2021/03/23 12:59:51;;;;;;;2.38;2.13;;;;;;;;;;5140498;27;20449;-69
2021/03/23 13:02:18;;;;;;;4.65;2.97;;;;;;;;;;5141868;27;20555;-70
2021/03/23 13:04:44;;;;;;;5.05;3.33;;;;;;;;;;5131850;27;20033;-69
2021/03/23 13:07:15;;;;;;;3.05;2.75;;;;;;;;;;5147354;27;20046;-69
2021/03/23 13:09:41;;;;;;;7.28;4.07;;;;;;;;;;5129693;27;20038;-70
2021/03/23 13:12:09;;;;;;;4.20;3.38;;;;;;;;;;5132057;27;20513;-70
2021/03/23 13:14:36;;;;;;;4.95;3.15;;;;;;;;;;5151265;27;20029;-70
2021/03/23 13:17:03;;;;;;;2.75;2.42;;;;;;;;;;5129025;27;20450;-70
2021/03/23 13:19:29;;;;;;;4.78;4.10;;;;;;;;;;5128168;27;20022;-70
2021/03/23 13:21:57;;;;;;;5.03;3.72;;;;;;;;;;5128847;27;20031;-70
2021/03/23 13:24:32;;;;;;;6.47;3.72;;;;;;;;;;5130104;27;20081;-70
2021/03/23 13:26:59;;;;;;;9.43;4.82;;;;;;;;;;5130480;27;20040;-70
2021/03/23 13:29:25;;;;;;;5.97;5.00;;;;;;;;;;5132310;27;20087;-70
2021/03/23 13:31:51;;;;;;;8.13;5.22;;;;;;;;;;5128837;27;20031;-70
2021/03/23 13:34:19;;;;;;;7.88;6.13;;;;;;;;;;5130870;27;20692;-70
2021/03/23 13:36:47;;;;;;;5.68;5.15;;;;;;;;;;5127483;27;20031;-70
2021/03/23 13:39:21;;;;;;;5.97;5.18;;;;;;;;;;5129792;27;20035;-70
2021/03/23 13:41:47;;;;;;;12.65;6.70;;;;;;;;;;5129375;27;20122;-69
2021/03/23 13:44:23;;;;;;;9.13;5.78;;;;;;;;;;5129656;27;20011;-69
2021/03/23 13:46:52;;;;;;;11.80;5.57;;;;;;;;;;5133095;27;20030;-70
2021/03/23 13:49:19;;;;;;;8.60;7.05;;;;;;;;;;5131748;27;20513;-70
2021/03/23 13:51:47;;;;;;;14.98;8.65;;;;;;;;;;5132684;27;20027;-70
2021/03/23 13:54:13;;;;;;;9.70;7.45;;;;;;;;;;5131765;27;20431;-69
2021/03/23 13:56:39;;;;;;;10.32;7.63;;;;;;;;;;5128489;27;20027;-69
2021/03/23 13:59:05;;;;;;;10.57;8.77;;;;;;;;;;5101535;27;20048;-69
2021/03/23 14:01:31;;;;;;;12.20;7.68;;;;;;;;;;5091990;28;20128;-69
2021/03/23 14:03:57;;;;;;;9.20;8.30;;;;;;;;;;5091299;28;20038;-69
2021/03/23 14:06:25;;;;;;;10.20;7.85;;;;;;;;;;5092788;28;20162;-69
2021/03/23 14:08:52;;;;;;;11.07;6.97;;;;;;;;;;5101512;28;20432;-70
2021/03/23 14:11:19;;;;;;;9.80;7.25;;;;;;;;;;5091790;28;20036;-70
2021/03/23 14:13:46;;;;;;;9.73;6.47;;;;;;;;;;5110606;28;20030;-69
2021/03/23 14:16:12;;;;;;;9.13;7.60;;;;;;;;;;5089790;28;20055;-68
2021/03/23 14:18:38;;;;;;;9.52;6.93;;;;;;;;;;5111501;28;20073;-68
2021/03/23 14:21:05;;;;;;;16.33;8.27;;;;;;;;;;5110059;28;20039;-67
2021/03/23 14:23:34;;;;;;;7.03;6.28;;;;;;;;;;5110950;28;20023;-68
2021/03/23 14:26:01;;;;;;;7.05;6.32;;;;;;;;;;5091200;28;20471;-71
2021/03/23 14:28:33;;;;;;;12.30;7.18;;;;;;;;;;5094695;28;20032;-69
2021/03/23 14:31:01;;;;;;;7.70;5.40;;;;;;;;;;5108499;28;20170;-74
2021/03/23 14:33:27;;;;;;;6.32;5.43;;;;;;;;;;5091311;28;20022;-71
2021/03/23 14:35:54;;;;;;;7.25;6.20;;;;;;;;;;5102794;28;20034;-68
2021/03/23 14:38:40;;;;;;;8.35;6.03;;;;;;;;;;5093804;28;20968;-68
2021/03/23 14:41:13;;;;;;;8.70;6.63;;;;;;;;;;5105746;28;20046;-68
2021/03/23 14:43:39;;;;;;;6.85;5.53;;;;;;;;;;5104927;28;20062;-68
2021/03/23 14:46:05;;;;;;;8.23;6.35;;;;;;;;;;5087130;28;20029;-68
2021/03/23 14:48:31;;;;;;;7.82;5.85;;;;;;;;;;5090253;28;20040;-68
2021/03/23 14:50:59;;;;;;;6.93;6.30;;;;;;;;;;5104595;28;20028;-68
2021/03/23 14:53:41;;;;;;;6.80;5.43;;;;;;;;;;5110822;28;20031;-67
2021/03/23 14:56:07;;;;;;;8.35;5.65;;;;;;;;;;5109621;28;20096;-68
2021/03/23 14:58:34;;;;;;;6.43;5.80;;;;;;;;;;5114013;27;20079;-68
2021/03/23 15:01:00;;;;;;;6.88;6.15;;;;;;;;;;5129556;27;20023;-68